sensor_id;sensor_type;location;lat;lon;timestamp;P1;durP1;ratioP1;P2;durP2;ratioP2
31848;SDS011;18414;59.352;18.152;2023-04-30T00:00:41;0.87;;;0.80;;
31848;SDS011;18414;59.352;18.152;2023-04-30T00:03:06;0.80;;;0.80;;
31848;SDS011;18414;59.352;18.152;2023-04-30T00:05:31;0.87;;;0.87;;
31848;SDS011;18414;59.352;18.152;2023-04-30T00:07:57;0.77;;;0.77;;
31848;SDS011;18414;59.352;18.152;2023-04-30T00:10:22;0.70;;;0.70;;
31848;SDS011;18414;59.352;18.152;2023-04-30T00:12:47;0.77;;;0.77;;
31848;SDS011;18414;59.352;18.152;2023-04-30T00:15:13;0.70;;;0.70;;
31848;SDS011;18414;59.352;18.152;2023-04-30T00:17:38;0.60;;;0.60;;
31848;SDS011;18414;59.352;18.152;2023-04-30T00:20:04;0.70;;;0.70;;
31848;SDS011;18414;59.352;18.152;2023-04-30T00:22:30;0.67;;;0.67;;
31848;SDS011;18414;59.352;18.152;2023-04-30T00:24:57;0.80;;;0.80;;
31848;SDS011;18414;59.352;18.152;2023-04-30T00:27:22;0.63;;;0.63;;
31848;SDS011;18414;59.352;18.152;2023-04-30T00:29:47;0.90;;;0.60;;
31848;SDS011;18414;59.352;18.152;2023-04-30T00:32:16;0.87;;;0.60;;
31848;SDS011;18414;59.352;18.152;2023-04-30T00:34:41;0.70;;;0.70;;
31848;SDS011;18414;59.352;18.152;2023-04-30T00:37:06;0.60;;;0.60;;
31848;SDS011;18414;59.352;18.152;2023-04-30T00:39:32;0.80;;;0.80;;
31848;SDS011;18414;59.352;18.152;2023-04-30T00:41:57;0.70;;;0.70;;
31848;SDS011;18414;59.352;18.152;2023-04-30T00:44:22;0.80;;;0.80;;
31848;SDS011;18414;59.352;18.152;2023-04-30T00:46:48;0.67;;;0.67;;
31848;SDS011;18414;59.352;18.152;2023-04-30T00:49:13;0.87;;;0.80;;
31848;SDS011;18414;59.352;18.152;2023-04-30T00:51:39;0.97;;;0.80;;
31848;SDS011;18414;59.352;18.152;2023-04-30T00:54:06;0.63;;;0.63;;
31848;SDS011;18414;59.352;18.152;2023-04-30T00:56:31;0.60;;;0.60;;
31848;SDS011;18414;59.352;18.152;2023-04-30T00:58:57;0.77;;;0.77;;
31848;SDS011;18414;59.352;18.152;2023-04-30T01:01:26;0.80;;;0.80;;
31848;SDS011;18414;59.352;18.152;2023-04-30T01:03:54;1.00;;;0.90;;
31848;SDS011;18414;59.352;18.152;2023-04-30T01:06:19;0.80;;;0.80;;
31848;SDS011;18414;59.352;18.152;2023-04-30T01:08:45;0.70;;;0.70;;
31848;SDS011;18414;59.352;18.152;2023-04-30T01:16:48;0.80;;;0.77;;
31848;SDS011;18414;59.352;18.152;2023-04-30T01:22:34;0.77;;;0.77;;
31848;SDS011;18414;59.352;18.152;2023-04-30T01:25:24;0.60;;;0.60;;
31848;SDS011;18414;59.352;18.152;2023-04-30T01:28:34;0.70;;;0.70;;
31848;SDS011;18414;59.352;18.152;2023-04-30T01:30:52;1.67;;;0.80;;
31848;SDS011;18414;59.352;18.152;2023-04-30T01:33:18;0.80;;;0.73;;
31848;SDS011;18414;59.352;18.152;2023-04-30T01:36:18;0.87;;;0.87;;
31848;SDS011;18414;59.352;18.152;2023-04-30T01:44:06;0.80;;;0.80;;
31848;SDS011;18414;59.352;18.152;2023-04-30T01:46:43;0.97;;;0.77;;
31848;SDS011;18414;59.352;18.152;2023-04-30T01:49:29;1.13;;;1.00;;
31848;SDS011;18414;59.352;18.152;2023-04-30T01:51:59;1.80;;;0.60;;
31848;SDS011;18414;59.352;18.152;2023-04-30T01:54:37;0.77;;;0.77;;
31848;SDS011;18414;59.352;18.152;2023-04-30T01:57:08;2.80;;;0.80;;
31848;SDS011;18414;59.352;18.152;2023-04-30T01:59:38;0.73;;;0.73;;
31848;SDS011;18414;59.352;18.152;2023-04-30T02:02:04;0.73;;;0.73;;
31848;SDS011;18414;59.352;18.152;2023-04-30T02:04:30;0.77;;;0.63;;
31848;SDS011;18414;59.352;18.152;2023-04-30T02:06:55;1.20;;;0.80;;
31848;SDS011;18414;59.352;18.152;2023-04-30T02:09:22;0.70;;;0.70;;
31848;SDS011;18414;59.352;18.152;2023-04-30T02:11:48;1.30;;;0.70;;
31848;SDS011;18414;59.352;18.152;2023-04-30T02:14:13;0.90;;;0.83;;
31848;SDS011;18414;59.352;18.152;2023-04-30T02:16:38;0.80;;;0.80;;
31848;SDS011;18414;59.352;18.152;2023-04-30T02:19:04;0.80;;;0.80;;
31848;SDS011;18414;59.352;18.152;2023-04-30T02:21:29;1.10;;;0.80;;
31848;SDS011;18414;59.352;18.152;2023-04-30T02:23:55;0.90;;;0.73;;
31848;SDS011;18414;59.352;18.152;2023-04-30T02:26:21;0.77;;;0.77;;
31848;SDS011;18414;59.352;18.152;2023-04-30T02:28:46;0.80;;;0.80;;
31848;SDS011;18414;59.352;18.152;2023-04-30T02:31:11;0.70;;;0.70;;
31848;SDS011;18414;59.352;18.152;2023-04-30T02:33:37;2.47;;;0.80;;
31848;SDS011;18414;59.352;18.152;2023-04-30T02:36:02;0.70;;;0.70;;
31848;SDS011;18414;59.352;18.152;2023-04-30T02:38:28;1.90;;;0.73;;
31848;SDS011;18414;59.352;18.152;2023-04-30T02:40:53;0.70;;;0.70;;
31848;SDS011;18414;59.352;18.152;2023-04-30T02:43:18;0.60;;;0.60;;
31848;SDS011;18414;59.352;18.152;2023-04-30T02:45:44;0.70;;;0.70;;
31848;SDS011;18414;59.352;18.152;2023-04-30T02:48:09;0.60;;;0.60;;
31848;SDS011;18414;59.352;18.152;2023-04-30T02:50:35;0.70;;;0.63;;
31848;SDS011;18414;59.352;18.152;2023-04-30T02:53:00;0.67;;;0.67;;
31848;SDS011;18414;59.352;18.152;2023-04-30T02:55:26;0.57;;;0.57;;
31848;SDS011;18414;59.352;18.152;2023-04-30T02:57:51;1.13;;;0.83;;
31848;SDS011;18414;59.352;18.152;2023-04-30T03:00:16;0.70;;;0.70;;
31848;SDS011;18414;59.352;18.152;2023-04-30T03:02:42;0.70;;;0.70;;
31848;SDS011;18414;59.352;18.152;2023-04-30T03:05:07;0.70;;;0.70;;
31848;SDS011;18414;59.352;18.152;2023-04-30T03:07:33;0.90;;;0.80;;
31848;SDS011;18414;59.352;18.152;2023-04-30T03:09:58;0.80;;;0.80;;
31848;SDS011;18414;59.352;18.152;2023-04-30T03:12:23;2.10;;;0.73;;
31848;SDS011;18414;59.352;18.152;2023-04-30T03:14:49;0.60;;;0.60;;
31848;SDS011;18414;59.352;18.152;2023-04-30T03:17:14;0.80;;;0.70;;
31848;SDS011;18414;59.352;18.152;2023-04-30T03:19:40;0.57;;;0.57;;
31848;SDS011;18414;59.352;18.152;2023-04-30T03:22:05;0.70;;;0.70;;
31848;SDS011;18414;59.352;18.152;2023-04-30T03:24:31;0.70;;;0.70;;
31848;SDS011;18414;59.352;18.152;2023-04-30T03:26:56;0.70;;;0.70;;
31848;SDS011;18414;59.352;18.152;2023-04-30T03:29:22;0.70;;;0.70;;
31848;SDS011;18414;59.352;18.152;2023-04-30T03:31:47;0.63;;;0.63;;
31848;SDS011;18414;59.352;18.152;2023-04-30T03:34:12;0.63;;;0.63;;
31848;SDS011;18414;59.352;18.152;2023-04-30T03:36:38;0.57;;;0.57;;
31848;SDS011;18414;59.352;18.152;2023-04-30T03:39:03;0.70;;;0.70;;
31848;SDS011;18414;59.352;18.152;2023-04-30T03:41:29;0.87;;;0.70;;
31848;SDS011;18414;59.352;18.152;2023-04-30T03:43:54;0.60;;;0.60;;
31848;SDS011;18414;59.352;18.152;2023-04-30T03:46:19;0.70;;;0.70;;
31848;SDS011;18414;59.352;18.152;2023-04-30T03:48:45;0.73;;;0.73;;
31848;SDS011;18414;59.352;18.152;2023-04-30T03:51:10;0.97;;;0.63;;
31848;SDS011;18414;59.352;18.152;2023-04-30T03:53:36;1.03;;;0.60;;
31848;SDS011;18414;59.352;18.152;2023-04-30T03:56:01;1.27;;;0.77;;
31848;SDS011;18414;59.352;18.152;2023-04-30T03:58:28;0.80;;;0.70;;
31848;SDS011;18414;59.352;18.152;2023-04-30T04:00:53;0.70;;;0.70;;
31848;SDS011;18414;59.352;18.152;2023-04-30T04:03:19;1.47;;;0.70;;
31848;SDS011;18414;59.352;18.152;2023-04-30T04:05:44;0.93;;;0.83;;
31848;SDS011;18414;59.352;18.152;2023-04-30T04:08:10;0.60;;;0.60;;
31848;SDS011;18414;59.352;18.152;2023-04-30T04:10:35;3.47;;;0.90;;
31848;SDS011;18414;59.352;18.152;2023-04-30T04:13:00;0.70;;;0.67;;
31848;SDS011;18414;59.352;18.152;2023-04-30T04:15:26;1.77;;;0.70;;
31848;SDS011;18414;59.352;18.152;2023-04-30T04:17:51;0.70;;;0.70;;
31848;SDS011;18414;59.352;18.152;2023-04-30T04:20:16;1.20;;;0.70;;
31848;SDS011;18414;59.352;18.152;2023-04-30T04:22:42;1.80;;;0.80;;
31848;SDS011;18414;59.352;18.152;2023-04-30T04:25:08;1.63;;;0.80;;
31848;SDS011;18414;59.352;18.152;2023-04-30T04:27:34;0.80;;;0.80;;
31848;SDS011;18414;59.352;18.152;2023-04-30T04:30:00;0.80;;;0.80;;
31848;SDS011;18414;59.352;18.152;2023-04-30T04:32:26;3.53;;;0.90;;
31848;SDS011;18414;59.352;18.152;2023-04-30T04:34:52;0.80;;;0.80;;
31848;SDS011;18414;59.352;18.152;2023-04-30T04:37:18;0.93;;;0.80;;
31848;SDS011;18414;59.352;18.152;2023-04-30T04:39:44;2.90;;;0.90;;
31848;SDS011;18414;59.352;18.152;2023-04-30T04:42:10;1.93;;;0.90;;
31848;SDS011;18414;59.352;18.152;2023-04-30T04:44:36;1.03;;;0.80;;
31848;SDS011;18414;59.352;18.152;2023-04-30T04:47:02;3.30;;;1.00;;
31848;SDS011;18414;59.352;18.152;2023-04-30T04:49:28;1.10;;;0.90;;
31848;SDS011;18414;59.352;18.152;2023-04-30T04:51:53;1.07;;;0.80;;
31848;SDS011;18414;59.352;18.152;2023-04-30T04:54:19;0.70;;;0.70;;
31848;SDS011;18414;59.352;18.152;2023-04-30T04:56:45;1.63;;;0.97;;
31848;SDS011;18414;59.352;18.152;2023-04-30T04:59:10;1.37;;;0.80;;
31848;SDS011;18414;59.352;18.152;2023-04-30T05:01:36;0.77;;;0.77;;
31848;SDS011;18414;59.352;18.152;2023-04-30T05:04:01;2.10;;;0.90;;
31848;SDS011;18414;59.352;18.152;2023-04-30T05:06:26;0.73;;;0.73;;
31848;SDS011;18414;59.352;18.152;2023-04-30T05:08:52;0.93;;;0.80;;
31848;SDS011;18414;59.352;18.152;2023-04-30T05:11:18;0.80;;;0.80;;
31848;SDS011;18414;59.352;18.152;2023-04-30T05:13:43;1.83;;;0.90;;
31848;SDS011;18414;59.352;18.152;2023-04-30T05:16:08;1.90;;;0.97;;
31848;SDS011;18414;59.352;18.152;2023-04-30T05:18:33;0.90;;;0.83;;
31848;SDS011;18414;59.352;18.152;2023-04-30T05:20:59;0.93;;;0.90;;
31848;SDS011;18414;59.352;18.152;2023-04-30T05:23:24;0.87;;;0.80;;
31848;SDS011;18414;59.352;18.152;2023-04-30T05:25:50;0.97;;;0.87;;
31848;SDS011;18414;59.352;18.152;2023-04-30T05:28:16;1.50;;;1.00;;
31848;SDS011;18414;59.352;18.152;2023-04-30T05:30:41;0.97;;;0.70;;
31848;SDS011;18414;59.352;18.152;2023-04-30T05:33:07;1.03;;;0.90;;
31848;SDS011;18414;59.352;18.152;2023-04-30T05:35:32;1.93;;;0.97;;
31848;SDS011;18414;59.352;18.152;2023-04-30T05:38:00;0.77;;;0.70;;
31848;SDS011;18414;59.352;18.152;2023-04-30T05:40:25;1.10;;;0.90;;
31848;SDS011;18414;59.352;18.152;2023-04-30T05:42:51;1.23;;;0.90;;
31848;SDS011;18414;59.352;18.152;2023-04-30T05:45:16;5.50;;;0.90;;
31848;SDS011;18414;59.352;18.152;2023-04-30T05:47:42;0.80;;;0.80;;
31848;SDS011;18414;59.352;18.152;2023-04-30T05:50:08;2.63;;;1.00;;
31848;SDS011;18414;59.352;18.152;2023-04-30T05:52:34;0.80;;;0.80;;
31848;SDS011;18414;59.352;18.152;2023-04-30T05:54:59;0.93;;;0.87;;
31848;SDS011;18414;59.352;18.152;2023-04-30T05:57:24;0.90;;;0.90;;
31848;SDS011;18414;59.352;18.152;2023-04-30T05:59:50;0.93;;;0.87;;
31848;SDS011;18414;59.352;18.152;2023-04-30T06:02:15;0.90;;;0.80;;
31848;SDS011;18414;59.352;18.152;2023-04-30T06:04:41;1.17;;;0.90;;
31848;SDS011;18414;59.352;18.152;2023-04-30T06:07:06;0.90;;;0.90;;
31848;SDS011;18414;59.352;18.152;2023-04-30T06:09:31;1.47;;;1.00;;
31848;SDS011;18414;59.352;18.152;2023-04-30T06:11:57;1.80;;;0.83;;
31848;SDS011;18414;59.352;18.152;2023-04-30T06:14:22;1.23;;;0.90;;
31848;SDS011;18414;59.352;18.152;2023-04-30T06:16:48;2.30;;;1.03;;
31848;SDS011;18414;59.352;18.152;2023-04-30T06:19:13;1.17;;;0.80;;
31848;SDS011;18414;59.352;18.152;2023-04-30T06:21:39;1.60;;;0.93;;
31848;SDS011;18414;59.352;18.152;2023-04-30T06:24:04;0.90;;;0.90;;
31848;SDS011;18414;59.352;18.152;2023-04-30T06:26:30;1.60;;;0.87;;
31848;SDS011;18414;59.352;18.152;2023-04-30T06:28:56;1.27;;;0.90;;
31848;SDS011;18414;59.352;18.152;2023-04-30T06:31:22;0.87;;;0.87;;
31848;SDS011;18414;59.352;18.152;2023-04-30T06:33:48;1.50;;;1.07;;
31848;SDS011;18414;59.352;18.152;2023-04-30T06:36:14;1.00;;;0.90;;
31848;SDS011;18414;59.352;18.152;2023-04-30T06:38:39;1.33;;;1.10;;
31848;SDS011;18414;59.352;18.152;2023-04-30T06:41:05;1.03;;;0.90;;
31848;SDS011;18414;59.352;18.152;2023-04-30T06:43:31;1.53;;;1.00;;
31848;SDS011;18414;59.352;18.152;2023-04-30T06:45:56;1.33;;;1.10;;
31848;SDS011;18414;59.352;18.152;2023-04-30T06:48:21;1.47;;;1.00;;
31848;SDS011;18414;59.352;18.152;2023-04-30T06:50:47;1.17;;;1.07;;
31848;SDS011;18414;59.352;18.152;2023-04-30T06:53:12;0.93;;;0.80;;
31848;SDS011;18414;59.352;18.152;2023-04-30T06:55:39;2.27;;;0.97;;
31848;SDS011;18414;59.352;18.152;2023-04-30T06:58:06;1.30;;;0.97;;
31848;SDS011;18414;59.352;18.152;2023-04-30T07:00:32;1.10;;;1.00;;
31848;SDS011;18414;59.352;18.152;2023-04-30T07:02:57;2.23;;;1.00;;
31848;SDS011;18414;59.352;18.152;2023-04-30T07:05:26;2.83;;;0.80;;
31848;SDS011;18414;59.352;18.152;2023-04-30T07:07:52;1.77;;;1.00;;
31848;SDS011;18414;59.352;18.152;2023-04-30T07:10:17;0.83;;;0.83;;
31848;SDS011;18414;59.352;18.152;2023-04-30T07:12:43;0.97;;;0.83;;
31848;SDS011;18414;59.352;18.152;2023-04-30T07:15:09;2.77;;;0.90;;
31848;SDS011;18414;59.352;18.152;2023-04-30T07:17:34;1.07;;;0.90;;
31848;SDS011;18414;59.352;18.152;2023-04-30T07:20:01;1.33;;;1.10;;
31848;SDS011;18414;59.352;18.152;2023-04-30T07:22:28;0.97;;;0.93;;
31848;SDS011;18414;59.352;18.152;2023-04-30T07:24:55;0.87;;;0.80;;
31848;SDS011;18414;59.352;18.152;2023-04-30T07:27:21;1.07;;;0.93;;
31848;SDS011;18414;59.352;18.152;2023-04-30T07:29:46;0.97;;;0.97;;
31848;SDS011;18414;59.352;18.152;2023-04-30T07:32:12;2.70;;;1.10;;
31848;SDS011;18414;59.352;18.152;2023-04-30T07:34:38;1.50;;;0.80;;
31848;SDS011;18414;59.352;18.152;2023-04-30T07:37:03;1.53;;;1.10;;
31848;SDS011;18414;59.352;18.152;2023-04-30T07:39:29;1.10;;;1.00;;
31848;SDS011;18414;59.352;18.152;2023-04-30T07:41:55;0.87;;;0.87;;
31848;SDS011;18414;59.352;18.152;2023-04-30T07:44:20;2.60;;;1.00;;
31848;SDS011;18414;59.352;18.152;2023-04-30T07:46:45;2.03;;;0.90;;
31848;SDS011;18414;59.352;18.152;2023-04-30T07:49:11;1.00;;;0.90;;
31848;SDS011;18414;59.352;18.152;2023-04-30T07:51:36;2.93;;;0.97;;
31848;SDS011;18414;59.352;18.152;2023-04-30T07:54:02;1.10;;;0.97;;
31848;SDS011;18414;59.352;18.152;2023-04-30T07:56:28;1.20;;;0.97;;
31848;SDS011;18414;59.352;18.152;2023-04-30T07:58:54;2.47;;;1.07;;
31848;SDS011;18414;59.352;18.152;2023-04-30T08:01:19;1.10;;;0.90;;
31848;SDS011;18414;59.352;18.152;2023-04-30T08:03:45;1.40;;;1.10;;
31848;SDS011;18414;59.352;18.152;2023-04-30T08:06:10;1.33;;;1.23;;
31848;SDS011;18414;59.352;18.152;2023-04-30T08:08:36;1.17;;;0.97;;
31848;SDS011;18414;59.352;18.152;2023-04-30T08:11:01;1.27;;;0.90;;
31848;SDS011;18414;59.352;18.152;2023-04-30T08:13:26;1.67;;;1.03;;
31848;SDS011;18414;59.352;18.152;2023-04-30T08:15:52;1.37;;;1.10;;
31848;SDS011;18414;59.352;18.152;2023-04-30T08:18:17;3.17;;;0.90;;
31848;SDS011;18414;59.352;18.152;2023-04-30T08:20:42;1.93;;;0.90;;
31848;SDS011;18414;59.352;18.152;2023-04-30T08:23:08;1.43;;;1.00;;
31848;SDS011;18414;59.352;18.152;2023-04-30T08:25:33;0.90;;;0.90;;
31848;SDS011;18414;59.352;18.152;2023-04-30T08:27:58;1.47;;;1.00;;
31848;SDS011;18414;59.352;18.152;2023-04-30T08:30:24;2.80;;;1.10;;
31848;SDS011;18414;59.352;18.152;2023-04-30T08:32:49;1.37;;;0.90;;
31848;SDS011;18414;59.352;18.152;2023-04-30T08:35:15;1.23;;;0.90;;
31848;SDS011;18414;59.352;18.152;2023-04-30T08:37:43;1.37;;;1.00;;
31848;SDS011;18414;59.352;18.152;2023-04-30T08:40:09;2.03;;;1.00;;
31848;SDS011;18414;59.352;18.152;2023-04-30T08:42:36;1.30;;;1.10;;
31848;SDS011;18414;59.352;18.152;2023-04-30T08:45:02;1.33;;;1.10;;
31848;SDS011;18414;59.352;18.152;2023-04-30T08:47:28;1.63;;;1.00;;
31848;SDS011;18414;59.352;18.152;2023-04-30T08:49:53;1.37;;;1.00;;
31848;SDS011;18414;59.352;18.152;2023-04-30T08:52:19;1.20;;;1.10;;
31848;SDS011;18414;59.352;18.152;2023-04-30T08:54:45;1.13;;;0.97;;
31848;SDS011;18414;59.352;18.152;2023-04-30T08:57:12;1.00;;;0.90;;
31848;SDS011;18414;59.352;18.152;2023-04-30T08:59:37;1.17;;;1.07;;
31848;SDS011;18414;59.352;18.152;2023-04-30T09:02:03;2.77;;;1.00;;
31848;SDS011;18414;59.352;18.152;2023-04-30T09:04:29;2.63;;;1.10;;
31848;SDS011;18414;59.352;18.152;2023-04-30T09:06:54;1.23;;;0.87;;
31848;SDS011;18414;59.352;18.152;2023-04-30T09:09:29;1.60;;;1.20;;
31848;SDS011;18414;59.352;18.152;2023-04-30T09:12:17;3.63;;;1.10;;
31848;SDS011;18414;59.352;18.152;2023-04-30T09:15:02;1.30;;;1.20;;
31848;SDS011;18414;59.352;18.152;2023-04-30T09:17:28;2.23;;;1.37;;
31848;SDS011;18414;59.352;18.152;2023-04-30T09:20:05;2.00;;;1.30;;
31848;SDS011;18414;59.352;18.152;2023-04-30T09:22:34;1.20;;;1.10;;
31848;SDS011;18414;59.352;18.152;2023-04-30T09:25:01;2.63;;;1.10;;
31848;SDS011;18414;59.352;18.152;2023-04-30T09:27:26;1.10;;;1.00;;
31848;SDS011;18414;59.352;18.152;2023-04-30T09:29:51;1.70;;;1.00;;
31848;SDS011;18414;59.352;18.152;2023-04-30T09:32:17;3.30;;;0.93;;
31848;SDS011;18414;59.352;18.152;2023-04-30T09:34:43;1.30;;;0.87;;
31848;SDS011;18414;59.352;18.152;2023-04-30T09:37:08;2.63;;;1.20;;
31848;SDS011;18414;59.352;18.152;2023-04-30T09:39:45;1.30;;;1.17;;
31848;SDS011;18414;59.352;18.152;2023-04-30T09:42:11;1.53;;;1.13;;
31848;SDS011;18414;59.352;18.152;2023-04-30T09:44:37;1.40;;;0.90;;
31848;SDS011;18414;59.352;18.152;2023-04-30T09:47:04;4.07;;;1.00;;
31848;SDS011;18414;59.352;18.152;2023-04-30T09:49:29;2.90;;;1.07;;
31848;SDS011;18414;59.352;18.152;2023-04-30T09:51:55;1.17;;;1.00;;
31848;SDS011;18414;59.352;18.152;2023-04-30T09:54:26;2.33;;;0.90;;
31848;SDS011;18414;59.352;18.152;2023-04-30T09:56:53;1.13;;;1.03;;
31848;SDS011;18414;59.352;18.152;2023-04-30T09:59:22;1.90;;;1.10;;
31848;SDS011;18414;59.352;18.152;2023-04-30T10:01:52;1.50;;;1.10;;
31848;SDS011;18414;59.352;18.152;2023-04-30T10:04:18;1.20;;;1.10;;
31848;SDS011;18414;59.352;18.152;2023-04-30T10:06:44;1.47;;;1.20;;
31848;SDS011;18414;59.352;18.152;2023-04-30T10:09:10;1.73;;;1.00;;
31848;SDS011;18414;59.352;18.152;2023-04-30T10:11:38;1.00;;;0.90;;
31848;SDS011;18414;59.352;18.152;2023-04-30T10:14:09;1.67;;;0.83;;
31848;SDS011;18414;59.352;18.152;2023-04-30T10:16:39;2.33;;;1.10;;
31848;SDS011;18414;59.352;18.152;2023-04-30T10:19:06;1.40;;;1.00;;
31848;SDS011;18414;59.352;18.152;2023-04-30T10:21:36;4.17;;;1.20;;
31848;SDS011;18414;59.352;18.152;2023-04-30T10:24:04;3.27;;;1.00;;
31848;SDS011;18414;59.352;18.152;2023-04-30T10:26:30;1.50;;;1.10;;
31848;SDS011;18414;59.352;18.152;2023-04-30T10:28:56;1.53;;;1.27;;
31848;SDS011;18414;59.352;18.152;2023-04-30T10:31:23;2.50;;;0.90;;
31848;SDS011;18414;59.352;18.152;2023-04-30T10:34:01;1.10;;;0.90;;
31848;SDS011;18414;59.352;18.152;2023-04-30T10:36:53;1.30;;;1.00;;
31848;SDS011;18414;59.352;18.152;2023-04-30T10:39:21;0.90;;;0.90;;
31848;SDS011;18414;59.352;18.152;2023-04-30T10:41:47;3.40;;;1.10;;
31848;SDS011;18414;59.352;18.152;2023-04-30T10:44:13;1.67;;;1.33;;
31848;SDS011;18414;59.352;18.152;2023-04-30T10:46:39;2.53;;;1.60;;
31848;SDS011;18414;59.352;18.152;2023-04-30T10:49:04;2.13;;;1.47;;
31848;SDS011;18414;59.352;18.152;2023-04-30T10:51:43;1.30;;;1.20;;
31848;SDS011;18414;59.352;18.152;2023-04-30T10:54:28;1.20;;;1.10;;
31848;SDS011;18414;59.352;18.152;2023-04-30T10:57:09;2.07;;;1.10;;
31848;SDS011;18414;59.352;18.152;2023-04-30T10:59:41;2.53;;;0.80;;
31848;SDS011;18414;59.352;18.152;2023-04-30T11:02:11;1.83;;;0.83;;
31848;SDS011;18414;59.352;18.152;2023-04-30T11:07:49;2.53;;;1.10;;
31848;SDS011;18414;59.352;18.152;2023-04-30T11:10:15;1.40;;;0.80;;
31848;SDS011;18414;59.352;18.152;2023-04-30T11:12:46;1.47;;;0.97;;
31848;SDS011;18414;59.352;18.152;2023-04-30T11:15:12;1.57;;;0.80;;
31848;SDS011;18414;59.352;18.152;2023-04-30T11:17:41;2.60;;;0.70;;
31848;SDS011;18414;59.352;18.152;2023-04-30T11:20:07;1.93;;;0.93;;
31848;SDS011;18414;59.352;18.152;2023-04-30T11:22:36;1.53;;;0.83;;
31848;SDS011;18414;59.352;18.152;2023-04-30T11:25:04;6.03;;;0.97;;
31848;SDS011;18414;59.352;18.152;2023-04-30T11:27:31;1.00;;;0.80;;
31848;SDS011;18414;59.352;18.152;2023-04-30T11:29:59;4.30;;;1.17;;
31848;SDS011;18414;59.352;18.152;2023-04-30T11:32:26;1.83;;;0.90;;
31848;SDS011;18414;59.352;18.152;2023-04-30T11:34:57;0.80;;;0.80;;
31848;SDS011;18414;59.352;18.152;2023-04-30T11:37:29;1.40;;;0.90;;
31848;SDS011;18414;59.352;18.152;2023-04-30T11:40:06;1.00;;;0.93;;
31848;SDS011;18414;59.352;18.152;2023-04-30T11:42:32;2.40;;;0.87;;
31848;SDS011;18414;59.352;18.152;2023-04-30T11:45:12;4.83;;;0.93;;
31848;SDS011;18414;59.352;18.152;2023-04-30T11:47:40;2.50;;;0.60;;
31848;SDS011;18414;59.352;18.152;2023-04-30T11:50:13;1.00;;;0.90;;
31848;SDS011;18414;59.352;18.152;2023-04-30T11:52:40;1.20;;;0.70;;
31848;SDS011;18414;59.352;18.152;2023-04-30T11:55:15;1.07;;;0.80;;
31848;SDS011;18414;59.352;18.152;2023-04-30T11:57:51;1.27;;;0.70;;
31848;SDS011;18414;59.352;18.152;2023-04-30T12:00:20;1.43;;;0.97;;
31848;SDS011;18414;59.352;18.152;2023-04-30T12:02:47;1.20;;;1.10;;
31848;SDS011;18414;59.352;18.152;2023-04-30T12:05:13;1.00;;;0.90;;
31848;SDS011;18414;59.352;18.152;2023-04-30T12:07:44;1.30;;;1.10;;
31848;SDS011;18414;59.352;18.152;2023-04-30T12:10:11;4.43;;;2.63;;
31848;SDS011;18414;59.352;18.152;2023-04-30T12:12:36;1.57;;;0.90;;
31848;SDS011;18414;59.352;18.152;2023-04-30T12:15:23;7.83;;;4.30;;
31848;SDS011;18414;59.352;18.152;2023-04-30T12:17:50;7.50;;;3.63;;
31848;SDS011;18414;59.352;18.152;2023-04-30T12:20:16;4.30;;;1.90;;
31848;SDS011;18414;59.352;18.152;2023-04-30T12:22:42;4.03;;;2.20;;
31848;SDS011;18414;59.352;18.152;2023-04-30T12:25:12;2.73;;;1.53;;
31848;SDS011;18414;59.352;18.152;2023-04-30T12:27:48;2.67;;;1.10;;
31848;SDS011;18414;59.352;18.152;2023-04-30T12:30:22;2.40;;;1.20;;
31848;SDS011;18414;59.352;18.152;2023-04-30T12:32:49;1.27;;;0.87;;
31848;SDS011;18414;59.352;18.152;2023-04-30T12:35:17;1.37;;;1.00;;
31848;SDS011;18414;59.352;18.152;2023-04-30T12:37:45;1.37;;;0.80;;
31848;SDS011;18414;59.352;18.152;2023-04-30T12:40:14;1.90;;;1.17;;
31848;SDS011;18414;59.352;18.152;2023-04-30T12:42:40;3.67;;;0.90;;
31848;SDS011;18414;59.352;18.152;2023-04-30T12:45:07;1.17;;;0.70;;
31848;SDS011;18414;59.352;18.152;2023-04-30T12:47:36;1.57;;;0.70;;
31848;SDS011;18414;59.352;18.152;2023-04-30T12:50:03;1.93;;;1.10;;
31848;SDS011;18414;59.352;18.152;2023-04-30T12:52:32;1.00;;;0.70;;
31848;SDS011;18414;59.352;18.152;2023-04-30T12:55:12;1.43;;;1.03;;
31848;SDS011;18414;59.352;18.152;2023-04-30T12:58:01;0.63;;;0.63;;
31848;SDS011;18414;59.352;18.152;2023-04-30T13:00:41;1.93;;;0.70;;
31848;SDS011;18414;59.352;18.152;2023-04-30T13:03:07;2.30;;;0.90;;
31848;SDS011;18414;59.352;18.152;2023-04-30T13:05:33;1.47;;;0.90;;
31848;SDS011;18414;59.352;18.152;2023-04-30T13:08:01;1.17;;;0.90;;
31848;SDS011;18414;59.352;18.152;2023-04-30T13:10:29;2.20;;;0.70;;
31848;SDS011;18414;59.352;18.152;2023-04-30T13:12:55;0.83;;;0.70;;
31848;SDS011;18414;59.352;18.152;2023-04-30T13:15:20;1.05;;;0.77;;
31848;SDS011;18414;59.352;18.152;2023-04-30T13:17:46;5.37;;;0.90;;
31848;SDS011;18414;59.352;18.152;2023-04-30T13:20:11;1.00;;;0.80;;
31848;SDS011;18414;59.352;18.152;2023-04-30T13:22:37;0.60;;;0.60;;
31848;SDS011;18414;59.352;18.152;2023-04-30T13:25:03;0.70;;;0.70;;
31848;SDS011;18414;59.352;18.152;2023-04-30T13:27:29;3.80;;;0.90;;
31848;SDS011;18414;59.352;18.152;2023-04-30T13:29:54;0.90;;;0.75;;
31848;SDS011;18414;59.352;18.152;2023-04-30T13:32:19;0.77;;;0.70;;
31848;SDS011;18414;59.352;18.152;2023-04-30T13:34:45;0.63;;;0.63;;
31848;SDS011;18414;59.352;18.152;2023-04-30T13:37:10;0.83;;;0.80;;
31848;SDS011;18414;59.352;18.152;2023-04-30T13:39:36;1.80;;;0.70;;
31848;SDS011;18414;59.352;18.152;2023-04-30T13:42:01;3.53;;;0.70;;
31848;SDS011;18414;59.352;18.152;2023-04-30T13:44:26;0.67;;;0.67;;
31848;SDS011;18414;59.352;18.152;2023-04-30T13:46:52;0.90;;;0.70;;
31848;SDS011;18414;59.352;18.152;2023-04-30T13:49:17;1.80;;;0.77;;
31848;SDS011;18414;59.352;18.152;2023-04-30T13:51:42;0.60;;;0.60;;
31848;SDS011;18414;59.352;18.152;2023-04-30T13:54:08;1.23;;;0.80;;
31848;SDS011;18414;59.352;18.152;2023-04-30T13:56:33;1.27;;;0.60;;
31848;SDS011;18414;59.352;18.152;2023-04-30T13:58:58;0.90;;;0.80;;
31848;SDS011;18414;59.352;18.152;2023-04-30T14:01:24;2.00;;;0.50;;
31848;SDS011;18414;59.352;18.152;2023-04-30T14:03:49;2.23;;;0.60;;
31848;SDS011;18414;59.352;18.152;2023-04-30T14:06:15;1.90;;;0.60;;
31848;SDS011;18414;59.352;18.152;2023-04-30T14:08:40;0.83;;;0.80;;
31848;SDS011;18414;59.352;18.152;2023-04-30T14:11:05;0.87;;;0.87;;
31848;SDS011;18414;59.352;18.152;2023-04-30T14:13:31;1.00;;;0.60;;
31848;SDS011;18414;59.352;18.152;2023-04-30T14:15:56;0.63;;;0.63;;
31848;SDS011;18414;59.352;18.152;2023-04-30T14:18:22;0.50;;;0.50;;
31848;SDS011;18414;59.352;18.152;2023-04-30T14:20:47;0.70;;;0.70;;
31848;SDS011;18414;59.352;18.152;2023-04-30T14:23:13;2.00;;;0.63;;
31848;SDS011;18414;59.352;18.152;2023-04-30T14:25:38;0.50;;;0.50;;
31848;SDS011;18414;59.352;18.152;2023-04-30T14:28:03;0.60;;;0.60;;
31848;SDS011;18414;59.352;18.152;2023-04-30T14:30:29;0.50;;;0.50;;
31848;SDS011;18414;59.352;18.152;2023-04-30T14:32:56;3.10;;;0.60;;
31848;SDS011;18414;59.352;18.152;2023-04-30T14:35:22;0.60;;;0.60;;
31848;SDS011;18414;59.352;18.152;2023-04-30T14:37:47;1.10;;;0.68;;
31848;SDS011;18414;59.352;18.152;2023-04-30T14:40:13;0.50;;;0.50;;
31848;SDS011;18414;59.352;18.152;2023-04-30T14:42:38;1.23;;;0.60;;
31848;SDS011;18414;59.352;18.152;2023-04-30T14:45:04;1.90;;;0.67;;
31848;SDS011;18414;59.352;18.152;2023-04-30T14:47:30;4.80;;;0.77;;
31848;SDS011;18414;59.352;18.152;2023-04-30T14:49:55;0.80;;;0.70;;